sensor_id;sensor_type;location;lat;lon;timestamp;pressure;altitude;pressure_sealevel;temperature;humidity
16481;BME280;44634;54.110;12.138;2022-07-26T00:02:24;100455.72;;;20.59;100.00
16481;BME280;44634;54.110;12.138;2022-07-26T00:04:52;100456.53;;;20.66;100.00
16481;BME280;44634;54.110;12.138;2022-07-26T00:07:20;100464.44;;;20.41;100.00
16481;BME280;44634;54.110;12.138;2022-07-26T00:09:48;100462.50;;;20.68;100.00
16481;BME280;44634;54.110;12.138;2022-07-26T00:12:15;100470.81;;;20.40;100.00
16481;BME280;44634;54.110;12.138;2022-07-26T00:14:43;100468.75;;;20.49;100.00
16481;BME280;44634;54.110;12.138;2022-07-26T00:17:11;100468.97;;;20.47;100.00
16481;BME280;44634;54.110;12.138;2022-07-26T00:19:40;100465.44;;;20.40;100.00
16481;BME280;44634;54.110;12.138;2022-07-26T00:22:08;100467.09;;;20.61;100.00
16481;BME280;44634;54.110;12.138;2022-07-26T00:24:53;100469.56;;;20.63;100.00
16481;BME280;44634;54.110;12.138;2022-07-26T00:27:21;100465.03;;;20.50;100.00
16481;BME280;44634;54.110;12.138;2022-07-26T00:29:51;100468.31;;;20.39;100.00
16481;BME280;44634;54.110;12.138;2022-07-26T00:32:18;100467.28;;;20.53;100.00
16481;BME280;44634;54.110;12.138;2022-07-26T00:34:48;100477.63;;;20.63;100.00
16481;BME280;44634;54.110;12.138;2022-07-26T00:37:17;100480.75;;;20.46;100.00
16481;BME280;44634;54.110;12.138;2022-07-26T00:39:46;100476.19;;;20.60;100.00
16481;BME280;44634;54.110;12.138;2022-07-26T00:42:14;100488.41;;;20.43;100.00
16481;BME280;44634;54.110;12.138;2022-07-26T00:44:44;100489.59;;;20.07;100.00
16481;BME280;44634;54.110;12.138;2022-07-26T00:47:12;100489.19;;;20.17;100.00
16481;BME280;44634;54.110;12.138;2022-07-26T00:49:41;100487.75;;;20.01;100.00
16481;BME280;44634;54.110;12.138;2022-07-26T00:52:11;100486.50;;;20.10;100.00
16481;BME280;44634;54.110;12.138;2022-07-26T00:54:40;100496.00;;;20.13;100.00
16481;BME280;44634;54.110;12.138;2022-07-26T00:57:11;100505.50;;;20.22;100.00
16481;BME280;44634;54.110;12.138;2022-07-26T00:59:40;100489.81;;;20.06;100.00
16481;BME280;44634;54.110;12.138;2022-07-26T01:02:09;100502.41;;;19.99;100.00
16481;BME280;44634;54.110;12.138;2022-07-26T01:04:38;100510.00;;;19.82;100.00
16481;BME280;44634;54.110;12.138;2022-07-26T01:07:06;100503.81;;;19.95;100.00
16481;BME280;44634;54.110;12.138;2022-07-26T01:09:43;100503.84;;;20.01;100.00
16481;BME280;44634;54.110;12.138;2022-07-26T01:12:11;100504.47;;;20.03;100.00
16481;BME280;44634;54.110;12.138;2022-07-26T01:14:41;100494.13;;;20.00;100.00
16481;BME280;44634;54.110;12.138;2022-07-26T01:17:09;100501.13;;;19.95;100.00
16481;BME280;44634;54.110;12.138;2022-07-26T01:19:37;100490.22;;;20.03;100.00
16481;BME280;44634;54.110;12.138;2022-07-26T01:22:06;100497.84;;;19.92;100.00
16481;BME280;44634;54.110;12.138;2022-07-26T01:24:40;100501.78;;;20.03;100.00
16481;BME280;44634;54.110;12.138;2022-07-26T01:27:08;100504.25;;;20.18;100.00
16481;BME280;44634;54.110;12.138;2022-07-26T01:29:35;100509.19;;;19.95;100.00
16481;BME280;44634;54.110;12.138;2022-07-26T01:32:04;100500.94;;;19.96;100.00
16481;BME280;44634;54.110;12.138;2022-07-26T01:34:32;100510.00;;;19.88;100.00
16481;BME280;44634;54.110;12.138;2022-07-26T01:37:01;100506.28;;;19.96;100.00
16481;BME280;44634;54.110;12.138;2022-07-26T01:39:30;100511.09;;;20.14;100.00
16481;BME280;44634;54.110;12.138;2022-07-26T01:41:58;100506.72;;;19.86;100.00
16481;BME280;44634;54.110;12.138;2022-07-26T01:44:26;100510.03;;;20.02;100.00
16481;BME280;44634;54.110;12.138;2022-07-26T01:46:54;100508.16;;;19.96;100.00
16481;BME280;44634;54.110;12.138;2022-07-26T01:49:21;100523.97;;;19.64;100.00
16481;BME280;44634;54.110;12.138;2022-07-26T01:51:49;100518.06;;;19.88;100.00
16481;BME280;44634;54.110;12.138;2022-07-26T01:54:17;100520.56;;;19.97;100.00
16481;BME280;44634;54.110;12.138;2022-07-26T01:56:51;100517.25;;;19.88;100.00
16481;BME280;44634;54.110;12.138;2022-07-26T01:59:19;100519.06;;;19.74;100.00
16481;BME280;44634;54.110;12.138;2022-07-26T02:01:47;100520.28;;;19.72;100.00
16481;BME280;44634;54.110;12.138;2022-07-26T02:04:15;100526.25;;;19.67;100.00
16481;BME280;44634;54.110;12.138;2022-07-26T02:06:57;100530.97;;;19.58;100.00
16481;BME280;44634;54.110;12.138;2022-07-26T02:09:25;100525.25;;;19.75;100.00
16481;BME280;44634;54.110;12.138;2022-07-26T02:12:01;100530.16;;;19.58;100.00
16481;BME280;44634;54.110;12.138;2022-07-26T02:14:29;100534.75;;;19.71;100.00
16481;BME280;44634;54.110;12.138;2022-07-26T02:16:56;100531.19;;;19.64;100.00
16481;BME280;44634;54.110;12.138;2022-07-26T02:19:26;100543.00;;;19.69;100.00
16481;BME280;44634;54.110;12.138;2022-07-26T02:21:54;100549.41;;;19.75;100.00
16481;BME280;44634;54.110;12.138;2022-07-26T02:24:22;100545.97;;;19.46;100.00
16481;BME280;44634;54.110;12.138;2022-07-26T02:26:50;100551.00;;;19.63;100.00
16481;BME280;44634;54.110;12.138;2022-07-26T02:29:19;100562.75;;;19.55;100.00
16481;BME280;44634;54.110;12.138;2022-07-26T02:31:47;100562.59;;;19.70;100.00
16481;BME280;44634;54.110;12.138;2022-07-26T02:34:15;100558.97;;;19.49;100.00
16481;BME280;44634;54.110;12.138;2022-07-26T02:36:44;100558.00;;;19.57;100.00
16481;BME280;44634;54.110;12.138;2022-07-26T02:39:12;100556.16;;;19.64;100.00
16481;BME280;44634;54.110;12.138;2022-07-26T02:41:40;100563.91;;;19.46;100.00
16481;BME280;44634;54.110;12.138;2022-07-26T02:44:08;100570.31;;;19.51;100.00
16481;BME280;44634;54.110;12.138;2022-07-26T02:46:38;100571.03;;;19.25;100.00
16481;BME280;44634;54.110;12.138;2022-07-26T02:49:06;100571.69;;;19.34;100.00
16481;BME280;44634;54.110;12.138;2022-07-26T02:51:34;100572.97;;;19.45;100.00
16481;BME280;44634;54.110;12.138;2022-07-26T02:54:02;100569.97;;;19.54;100.00
16481;BME280;44634;54.110;12.138;2022-07-26T02:56:31;100577.16;;;19.54;100.00
16481;BME280;44634;54.110;12.138;2022-07-26T02:58:59;100575.19;;;19.35;100.00
16481;BME280;44634;54.110;12.138;2022-07-26T03:01:26;100584.38;;;19.19;100.00
16481;BME280;44634;54.110;12.138;2022-07-26T03:03:56;100585.13;;;19.06;100.00
16481;BME280;44634;54.110;12.138;2022-07-26T03:06:24;100594.75;;;19.28;100.00
16481;BME280;44634;54.110;12.138;2022-07-26T03:08:51;100599.94;;;19.37;100.00
16481;BME280;44634;54.110;12.138;2022-07-26T03:11:20;100603.91;;;19.41;100.00
16481;BME280;44634;54.110;12.138;2022-07-26T03:13:47;100597.66;;;19.33;100.00
16481;BME280;44634;54.110;12.138;2022-07-26T03:16:15;100602.81;;;19.35;100.00
16481;BME280;44634;54.110;12.138;2022-07-26T03:18:50;100605.97;;;19.45;100.00
16481;BME280;44634;54.110;12.138;2022-07-26T03:21:19;100595.88;;;19.47;100.00
16481;BME280;44634;54.110;12.138;2022-07-26T03:23:47;100586.75;;;19.70;100.00
16481;BME280;44634;54.110;12.138;2022-07-26T03:26:15;100583.09;;;19.49;100.00
16481;BME280;44634;54.110;12.138;2022-07-26T03:28:42;100590.84;;;19.31;100.00
16481;BME280;44634;54.110;12.138;2022-07-26T03:31:11;100599.78;;;19.45;100.00
16481;BME280;44634;54.110;12.138;2022-07-26T03:33:39;100604.22;;;19.24;100.00
16481;BME280;44634;54.110;12.138;2022-07-26T03:36:07;100615.56;;;19.54;100.00
16481;BME280;44634;54.110;12.138;2022-07-26T03:38:42;100605.34;;;19.43;100.00
16481;BME280;44634;54.110;12.138;2022-07-26T03:41:10;100610.19;;;19.54;100.00
16481;BME280;44634;54.110;12.138;2022-07-26T03:43:39;100600.16;;;19.35;100.00
16481;BME280;44634;54.110;12.138;2022-07-26T03:46:07;100604.47;;;19.36;100.00
16481;BME280;44634;54.110;12.138;2022-07-26T03:48:35;100619.31;;;19.32;100.00
16481;BME280;44634;54.110;12.138;2022-07-26T03:51:03;100617.63;;;19.59;100.00
16481;BME280;44634;54.110;12.138;2022-07-26T03:53:31;100616.59;;;19.60;100.00
16481;BME280;44634;54.110;12.138;2022-07-26T03:56:02;100616.91;;;19.44;100.00
16481;BME280;44634;54.110;12.138;2022-07-26T03:58:47;100624.19;;;19.22;100.00
16481;BME280;44634;54.110;12.138;2022-07-26T04:01:15;100618.88;;;19.56;100.00
16481;BME280;44634;54.110;12.138;2022-07-26T04:03:43;100615.78;;;19.59;100.00
16481;BME280;44634;54.110;12.138;2022-07-26T04:06:13;100619.78;;;19.42;100.00
16481;BME280;44634;54.110;12.138;2022-07-26T04:08:41;100629.56;;;19.22;100.00
16481;BME280;44634;54.110;12.138;2022-07-26T04:11:11;100626.13;;;19.35;100.00
16481;BME280;44634;54.110;12.138;2022-07-26T04:13:39;100639.31;;;19.29;100.00
16481;BME280;44634;54.110;12.138;2022-07-26T04:16:07;100637.75;;;19.42;100.00
16481;BME280;44634;54.110;12.138;2022-07-26T04:18:35;100643.22;;;19.55;100.00
16481;BME280;44634;54.110;12.138;2022-07-26T04:21:03;100640.31;;;19.56;100.00
16481;BME280;44634;54.110;12.138;2022-07-26T04:23:31;100643.94;;;19.49;100.00
16481;BME280;44634;54.110;12.138;2022-07-26T04:25:59;100644.97;;;19.48;100.00
16481;BME280;44634;54.110;12.138;2022-07-26T04:28:28;100639.59;;;19.76;100.00
16481;BME280;44634;54.110;12.138;2022-07-26T04:30:57;100645.16;;;19.74;100.00
16481;BME280;44634;54.110;12.138;2022-07-26T04:33:25;100650.09;;;19.71;100.00
16481;BME280;44634;54.110;12.138;2022-07-26T04:35:54;100645.72;;;20.11;100.00
16481;BME280;44634;54.110;12.138;2022-07-26T04:38:21;100654.09;;;19.95;100.00
16481;BME280;44634;54.110;12.138;2022-07-26T04:40:50;100654.09;;;19.88;100.00
16481;BME280;44634;54.110;12.138;2022-07-26T04:43:18;100646.81;;;19.75;100.00
16481;BME280;44634;54.110;12.138;2022-07-26T04:45:47;100642.63;;;19.66;100.00
16481;BME280;44634;54.110;12.138;2022-07-26T04:48:16;100639.22;;;19.85;100.00
16481;BME280;44634;54.110;12.138;2022-07-26T04:50:44;100645.97;;;19.75;100.00
16481;BME280;44634;54.110;12.138;2022-07-26T04:53:12;100660.56;;;19.59;100.00
16481;BME280;44634;54.110;12.138;2022-07-26T04:55:40;100654.59;;;19.64;100.00
16481;BME280;44634;54.110;12.138;2022-07-26T04:58:08;100669.38;;;19.53;100.00
16481;BME280;44634;54.110;12.138;2022-07-26T05:00:36;100672.00;;;19.81;100.00
16481;BME280;44634;54.110;12.138;2022-07-26T05:03:26;100683.75;;;19.73;100.00
16481;BME280;44634;54.110;12.138;2022-07-26T05:05:54;100675.50;;;19.75;100.00
16481;BME280;44634;54.110;12.138;2022-07-26T05:08:21;100674.94;;;19.92;100.00
16481;BME280;44634;54.110;12.138;2022-07-26T05:10:49;100675.00;;;20.06;100.00
16481;BME280;44634;54.110;12.138;2022-07-26T05:13:21;100677.22;;;19.89;100.00
16481;BME280;44634;54.110;12.138;2022-07-26T05:15:56;100664.00;;;19.94;100.00
16481;BME280;44634;54.110;12.138;2022-07-26T05:18:25;100667.44;;;20.36;100.00
16481;BME280;44634;54.110;12.138;2022-07-26T05:20:57;100670.59;;;19.91;100.00
16481;BME280;44634;54.110;12.138;2022-07-26T05:23:24;100664.94;;;20.21;100.00
16481;BME280;44634;54.110;12.138;2022-07-26T05:25:52;100668.69;;;20.33;100.00
16481;BME280;44634;54.110;12.138;2022-07-26T05:28:20;100667.16;;;20.92;100.00
16481;BME280;44634;54.110;12.138;2022-07-26T05:30:48;100665.69;;;20.69;100.00
16481;BME280;44634;54.110;12.138;2022-07-26T05:33:16;100655.72;;;20.50;100.00
16481;BME280;44634;54.110;12.138;2022-07-26T05:35:46;100652.25;;;20.69;100.00
16481;BME280;44634;54.110;12.138;2022-07-26T05:38:13;100657.81;;;20.41;100.00
16481;BME280;44634;54.110;12.138;2022-07-26T05:40:41;100657.63;;;20.69;100.00
16481;BME280;44634;54.110;12.138;2022-07-26T05:43:15;100665.88;;;20.61;100.00
16481;BME280;44634;54.110;12.138;2022-07-26T05:45:43;100667.44;;;20.36;100.00
16481;BME280;44634;54.110;12.138;2022-07-26T05:48:11;100667.03;;;20.26;100.00
16481;BME280;44634;54.110;12.138;2022-07-26T05:50:39;100659.06;;;20.59;100.00
16481;BME280;44634;54.110;12.138;2022-07-26T05:53:08;100664.19;;;20.54;100.00
16481;BME280;44634;54.110;12.138;2022-07-26T05:55:36;100666.94;;;20.87;100.00
16481;BME280;44634;54.110;12.138;2022-07-26T05:58:03;100659.72;;;21.00;100.00
16481;BME280;44634;54.110;12.138;2022-07-26T06:00:32;100665.47;;;20.64;100.00
16481;BME280;44634;54.110;12.138;2022-07-26T06:02:59;100654.72;;;21.37;100.00
16481;BME280;44634;54.110;12.138;2022-07-26T06:05:47;100651.56;;;21.53;100.00
16481;BME280;44634;54.110;12.138;2022-07-26T06:08:17;100637.28;;;21.59;100.00
16481;BME280;44634;54.110;12.138;2022-07-26T06:10:45;100638.53;;;21.57;100.00
16481;BME280;44634;54.110;12.138;2022-07-26T06:13:13;100631.88;;;21.73;100.00
16481;BME280;44634;54.110;12.138;2022-07-26T06:15:42;100625.13;;;21.37;100.00
16481;BME280;44634;54.110;12.138;2022-07-26T06:18:10;100636.72;;;21.24;100.00
16481;BME280;44634;54.110;12.138;2022-07-26T06:20:38;100629.06;;;21.21;100.00
16481;BME280;44634;54.110;12.138;2022-07-26T06:23:06;100631.53;;;21.36;100.00
16481;BME280;44634;54.110;12.138;2022-07-26T06:25:36;100621.78;;;21.48;100.00
16481;BME280;44634;54.110;12.138;2022-07-26T06:28:04;100615.97;;;21.58;100.00
16481;BME280;44634;54.110;12.138;2022-07-26T06:30:34;100628.47;;;20.93;100.00
16481;BME280;44634;54.110;12.138;2022-07-26T06:33:02;100651.63;;;21.07;100.00
16481;BME280;44634;54.110;12.138;2022-07-26T06:35:30;100628.03;;;21.22;100.00
16481;BME280;44634;54.110;12.138;2022-07-26T06:38:01;100631.97;;;21.20;100.00
16481;BME280;44634;54.110;12.138;2022-07-26T06:40:29;100623.28;;;21.31;100.00
16481;BME280;44634;54.110;12.138;2022-07-26T06:42:58;100607.09;;;21.57;100.00
16481;BME280;44634;54.110;12.138;2022-07-26T06:45:30;100607.47;;;21.54;100.00
16481;BME280;44634;54.110;12.138;2022-07-26T06:47:58;100589.63;;;21.73;100.00
16481;BME280;44634;54.110;12.138;2022-07-26T06:50:26;100583.47;;;21.53;100.00
16481;BME280;44634;54.110;12.138;2022-07-26T06:52:54;100583.53;;;21.46;100.00
16481;BME280;44634;54.110;12.138;2022-07-26T06:55:22;100571.13;;;21.45;100.00
16481;BME280;44634;54.110;12.138;2022-07-26T06:57:50;100577.41;;;21.13;100.00
16481;BME280;44634;54.110;12.138;2022-07-26T07:00:19;100606.56;;;21.02;100.00
16481;BME280;44634;54.110;12.138;2022-07-26T07:02:47;100581.56;;;20.89;100.00
16481;BME280;44634;54.110;12.138;2022-07-26T07:05:15;100559.88;;;21.61;100.00
16481;BME280;44634;54.110;12.138;2022-07-26T07:07:43;100550.50;;;21.06;100.00
16481;BME280;44634;54.110;12.138;2022-07-26T07:10:11;100543.94;;;21.60;100.00
16481;BME280;44634;54.110;12.138;2022-07-26T07:12:39;100532.41;;;21.46;100.00
16481;BME280;44634;54.110;12.138;2022-07-26T07:15:10;100495.69;;;21.96;100.00
16481;BME280;44634;54.110;12.138;2022-07-26T07:17:39;100500.38;;;21.38;100.00
16481;BME280;44634;54.110;12.138;2022-07-26T07:20:08;100467.03;;;21.77;100.00
16481;BME280;44634;54.110;12.138;2022-07-26T07:22:36;100425.44;;;22.05;100.00
16481;BME280;44634;54.110;12.138;2022-07-26T07:25:04;100412.56;;;22.13;100.00
16481;BME280;44634;54.110;12.138;2022-07-26T07:27:32;100383.84;;;22.44;100.00
16481;BME280;44634;54.110;12.138;2022-07-26T07:30:00;100362.13;;;22.39;100.00
16481;BME280;44634;54.110;12.138;2022-07-26T07:32:29;100352.25;;;22.14;100.00
16481;BME280;44634;54.110;12.138;2022-07-26T07:34:59;100361.22;;;21.58;100.00
16481;BME280;44634;54.110;12.138;2022-07-26T07:37:27;100338.84;;;21.83;100.00
16481;BME280;44634;54.110;12.138;2022-07-26T07:40:15;100330.53;;;22.09;100.00
16481;BME280;44634;54.110;12.138;2022-07-26T07:42:43;100310.63;;;21.67;100.00
16481;BME280;44634;54.110;12.138;2022-07-26T07:45:10;100316.59;;;21.94;100.00
16481;BME280;44634;54.110;12.138;2022-07-26T07:47:38;100286.69;;;22.02;100.00
16481;BME280;44634;54.110;12.138;2022-07-26T07:50:08;100284.69;;;22.34;100.00
16481;BME280;44634;54.110;12.138;2022-07-26T07:52:36;100299.13;;;22.21;100.00
16481;BME280;44634;54.110;12.138;2022-07-26T07:55:07;100295.09;;;22.31;100.00
16481;BME280;44634;54.110;12.138;2022-07-26T07:57:55;100289.41;;;21.77;100.00
16481;BME280;44634;54.110;12.138;2022-07-26T08:00:24;100285.81;;;22.45;100.00
16481;BME280;44634;54.110;12.138;2022-07-26T08:02:53;100294.81;;;22.20;100.00
16481;BME280;44634;54.110;12.138;2022-07-26T08:05:22;100304.69;;;21.33;100.00
16481;BME280;44634;54.110;12.138;2022-07-26T08:07:50;100355.97;;;20.42;100.00
16481;BME280;44634;54.110;12.138;2022-07-26T08:10:18;100410.47;;;20.36;100.00
16481;BME280;44634;54.110;12.138;2022-07-26T08:12:46;100492.22;;;19.68;100.00
16481;BME280;44634;54.110;12.138;2022-07-26T08:15:17;100597.66;;;18.99;100.00
16481;BME280;44634;54.110;12.138;2022-07-26T08:17:46;100650.34;;;19.48;100.00
16481;BME280;44634;54.110;12.138;2022-07-26T08:20:21;100682.31;;;19.49;100.00
16481;BME280;44634;54.110;12.138;2022-07-26T08:22:50;100696.53;;;19.43;100.00
16481;BME280;44634;54.110;12.138;2022-07-26T08:25:18;100714.81;;;19.33;100.00
16481;BME280;44634;54.110;12.138;2022-07-26T08:27:46;100750.72;;;18.89;100.00
16481;BME280;44634;54.110;12.138;2022-07-26T08:30:29;100764.06;;;19.25;100.00
16481;BME280;44634;54.110;12.138;2022-07-26T08:32:57;100773.94;;;19.81;100.00
16481;BME280;44634;54.110;12.138;2022-07-26T08:35:26;100777.31;;;19.55;100.00
16481;BME280;44634;54.110;12.138;2022-07-26T08:37:55;100772.66;;;19.70;100.00
16481;BME280;44634;54.110;12.138;2022-07-26T08:40:23;100758.97;;;19.58;100.00
16481;BME280;44634;54.110;12.138;2022-07-26T08:42:54;100753.88;;;19.70;100.00
16481;BME280;44634;54.110;12.138;2022-07-26T08:45:22;100748.63;;;19.90;100.00
16481;BME280;44634;54.110;12.138;2022-07-26T08:47:51;100719.03;;;20.18;100.00
16481;BME280;44634;54.110;12.138;2022-07-26T08:50:40;100686.44;;;20.34;100.00
16481;BME280;44634;54.110;12.138;2022-07-26T08:53:09;100682.50;;;20.24;100.00
16481;BME280;44634;54.110;12.138;2022-07-26T08:55:38;100658.84;;;20.54;100.00
16481;BME280;44634;54.110;12.138;2022-07-26T08:58:26;100677.47;;;20.07;100.00
16481;BME280;44634;54.110;12.138;2022-07-26T09:01:05;100662.94;;;19.82;100.00
16481;BME280;44634;54.110;12.138;2022-07-26T09:03:34;100639.59;;;19.76;100.00
16481;BME280;44634;54.110;12.138;2022-07-26T09:06:13;100587.34;;;20.86;100.00
16481;BME280;44634;54.110;12.138;2022-07-26T09:08:42;100555.09;;;20.53;100.00
16481;BME280;44634;54.110;12.138;2022-07-26T09:11:25;100539.44;;;20.43;100.00
16481;BME280;44634;54.110;12.138;2022-07-26T09:13:55;100530.53;;;20.42;100.00
16481;BME280;44634;54.110;12.138;2022-07-26T09:16:23;100527.41;;;20.32;100.00
16481;BME280;44634;54.110;12.138;2022-07-26T09:18:51;100512.94;;;20.73;100.00
16481;BME280;44634;54.110;12.138;2022-07-26T09:21:28;100476.31;;;20.98;100.00
16481;BME280;44634;54.110;12.138;2022-07-26T09:23:56;100455.25;;;21.40;100.00
16481;BME280;44634;54.110;12.138;2022-07-26T09:26:25;100430.03;;;21.34;100.00
16481;BME280;44634;54.110;12.138;2022-07-26T09:29:04;100435.94;;;21.56;100.00
16481;BME280;44634;54.110;12.138;2022-07-26T09:31:33;100458.69;;;21.54;100.00
16481;BME280;44634;54.110;12.138;2022-07-26T09:34:02;100492.00;;;21.91;100.00
16481;BME280;44634;54.110;12.138;2022-07-26T09:36:32;100557.34;;;22.05;100.00
16481;BME280;44634;54.110;12.138;2022-07-26T09:39:02;100600.34;;;21.86;100.00
16481;BME280;44634;54.110;12.138;2022-07-26T09:41:33;100639.94;;;21.73;100.00
16481;BME280;44634;54.110;12.138;2022-07-26T09:44:03;100701.56;;;22.45;100.00
16481;BME280;44634;54.110;12.138;2022-07-26T09:46:32;100710.34;;;22.27;100.00
16481;BME280;44634;54.110;12.138;2022-07-26T09:49:16;100718.16;;;21.78;100.00
16481;BME280;44634;54.110;12.138;2022-07-26T09:51:46;100734.25;;;22.04;100.00
16481;BME280;44634;54.110;12.138;2022-07-26T09:54:17;100739.81;;;22.16;100.00
16481;BME280;44634;54.110;12.138;2022-07-26T09:56:47;100749.16;;;22.13;100.00
16481;BME280;44634;54.110;12.138;2022-07-26T09:59:17;100726.09;;;21.00;100.00
16481;BME280;44634;54.110;12.138;2022-07-26T10:01:46;100742.88;;;22.26;100.00
16481;BME280;44634;54.110;12.138;2022-07-26T10:04:15;100783.09;;;22.21;100.00
16481;BME280;44634;54.110;12.138;2022-07-26T10:06:45;100793.13;;;21.61;100.00
16481;BME280;44634;54.110;12.138;2022-07-26T10:09:13;100805.56;;;21.29;100.00
16481;BME280;44634;54.110;12.138;2022-07-26T10:11:44;100748.44;;;21.53;100.00
16481;BME280;44634;54.110;12.138;2022-07-26T10:14:33;100717.81;;;21.01;100.00
16481;BME280;44634;54.110;12.138;2022-07-26T10:20:41;100711.97;;;20.65;100.00
16481;BME280;44634;54.110;12.138;2022-07-26T10:23:42;100711.81;;;20.18;100.00
16481;BME280;44634;54.110;12.138;2022-07-26T10:26:13;100734.28;;;20.59;100.00
16481;BME280;44634;54.110;12.138;2022-07-26T10:29:23;100802.16;;;20.87;100.00
16481;BME280;44634;54.110;12.138;2022-07-26T10:32:14;100875.03;;;20.64;100.00
16481;BME280;44634;54.110;12.138;2022-07-26T10:34:43;100891.25;;;20.84;100.00
16481;BME280;44634;54.110;12.138;2022-07-26T10:37:21;100896.63;;;21.45;100.00
16481;BME280;44634;54.110;12.138;2022-07-26T10:40:18;100899.28;;;22.38;100.00
16481;BME280;44634;54.110;12.138;2022-07-26T10:42:48;100943.41;;;22.50;100.00
16481;BME280;44634;54.110;12.138;2022-07-26T10:45:19;100960.25;;;23.10;100.00
16481;BME280;44634;54.110;12.138;2022-07-26T10:48:10;100930.91;;;22.69;100.00
16481;BME280;44634;54.110;12.138;2022-07-26T10:50:39;100899.69;;;21.35;100.00
16481;BME280;44634;54.110;12.138;2022-07-26T10:53:08;100892.03;;;21.32;100.00
16481;BME280;44634;54.110;12.138;2022-07-26T10:55:49;100916.66;;;21.29;100.00
16481;BME280;44634;54.110;12.138;2022-07-26T10:58:18;100914.16;;;20.80;100.00
16481;BME280;44634;54.110;12.138;2022-07-26T11:00:57;100916.19;;;21.19;100.00
16481;BME280;44634;54.110;12.138;2022-07-26T11:03:34;100863.69;;;21.36;100.00
16481;BME280;44634;54.110;12.138;2022-07-26T11:06:09;100867.63;;;21.41;100.00
16481;BME280;44634;54.110;12.138;2022-07-26T11:08:37;100863.59;;;21.03;100.00
16481;BME280;44634;54.110;12.138;2022-07-26T11:11:12;100809.16;;;20.82;100.00
16481;BME280;44634;54.110;12.138;2022-07-26T11:13:40;100810.47;;;20.99;100.00
16481;BME280;44634;54.110;12.138;2022-07-26T11:16:08;100834.88;;;21.17;100.00
16481;BME280;44634;54.110;12.138;2022-07-26T11:18:37;100865.34;;;21.37;100.00
16481;BME280;44634;54.110;12.138;2022-07-26T11:21:11;100865.16;;;20.71;100.00
16481;BME280;44634;54.110;12.138;2022-07-26T11:23:40;100864.44;;;21.10;100.00
16481;BME280;44634;54.110;12.138;2022-07-26T11:26:13;100934.78;;;21.21;100.00
16481;BME280;44634;54.110;12.138;2022-07-26T11:28:57;100998.28;;;21.56;100.00
16481;BME280;44634;54.110;12.138;2022-07-26T11:31:37;101052.19;;;22.03;100.00
16481;BME280;44634;54.110;12.138;2022-07-26T11:34:27;101127.84;;;23.47;100.00
16481;BME280;44634;54.110;12.138;2022-07-26T11:36:57;101091.00;;;22.81;100.00
16481;BME280;44634;54.110;12.138;2022-07-26T11:39:27;101103.81;;;23.12;100.00
16481;BME280;44634;54.110;12.138;2022-07-26T11:41:58;101127.94;;;22.94;100.00
16481;BME280;44634;54.110;12.138;2022-07-26T11:44:26;101133.84;;;23.62;100.00
16481;BME280;44634;54.110;12.138;2022-07-26T11:46:55;101125.13;;;23.40;100.00
16481;BME280;44634;54.110;12.138;2022-07-26T11:49:25;101125.09;;;21.53;100.00
16481;BME280;44634;54.110;12.138;2022-07-26T11:52:13;101133.53;;;22.59;100.00
16481;BME280;44634;54.110;12.138;2022-07-26T11:54:51;101123.13;;;22.49;100.00
16481;BME280;44634;54.110;12.138;2022-07-26T11:57:27;101139.16;;;21.49;100.00
16481;BME280;44634;54.110;12.138;2022-07-26T11:59:55;101131.66;;;21.79;100.00
16481;BME280;44634;54.110;12.138;2022-07-26T12:02:23;101118.81;;;22.88;100.00
16481;BME280;44634;54.110;12.138;2022-07-26T12:05:11;101148.31;;;23.74;100.00
16481;BME280;44634;54.110;12.138;2022-07-26T12:07:52;101147.84;;;22.93;100.00
16481;BME280;44634;54.110;12.138;2022-07-26T12:10:20;101146.16;;;23.11;100.00
16481;BME280;44634;54.110;12.138;2022-07-26T12:12:49;101138.91;;;22.46;100.00
16481;BME280;44634;54.110;12.138;2022-07-26T12:15:43;101150.56;;;24.22;100.00
16481;BME280;44634;54.110;12.138;2022-07-26T12:18:20;101176.09;;;24.26;100.00
16481;BME280;44634;54.110;12.138;2022-07-26T12:20:56;101172.97;;;24.29;100.00
16481;BME280;44634;54.110;12.138;2022-07-26T12:23:39;101180.69;;;23.87;100.00
16481;BME280;44634;54.110;12.138;2022-07-26T12:26:18;101172.19;;;24.60;100.00
16481;BME280;44634;54.110;12.138;2022-07-26T12:28:47;101161.06;;;25.61;100.00
16481;BME280;44634;54.110;12.138;2022-07-26T12:31:23;101163.28;;;23.57;100.00
16481;BME280;44634;54.110;12.138;2022-07-26T12:33:51;101166.22;;;23.42;100.00
16481;BME280;44634;54.110;12.138;2022-07-26T12:36:20;101177.88;;;23.36;100.00
16481;BME280;44634;54.110;12.138;2022-07-26T12:38:55;101168.84;;;24.33;100.00
16481;BME280;44634;54.110;12.138;2022-07-26T12:41:33;101186.97;;;23.74;100.00
16481;BME280;44634;54.110;12.138;2022-07-26T12:44:03;101183.91;;;24.79;100.00
16481;BME280;44634;54.110;12.138;2022-07-26T12:46:32;101177.50;;;25.60;100.00
16481;BME280;44634;54.110;12.138;2022-07-26T12:49:01;101186.31;;;24.87;100.00
16481;BME280;44634;54.110;12.138;2022-07-26T12:51:29;101183.78;;;24.67;100.00
16481;BME280;44634;54.110;12.138;2022-07-26T12:53:57;101182.88;;;24.73;100.00